الصفحة الرئيسية
METAR-TAF:

METAR-TAF

مطار :

ميسا, أريزونا, الولايات المتحدة

دائرة عرض: 33-28N, خط طول: 111-44W, ارتفاع: 424 متر

مراقبة الطقس الحالي

تاريخ ووقت الإصدار 42 دقيقة قبل الساعة 03:54UTC
ريح 4 عقدة من الشمال
درجة الحرارة 14°درجة مئوية
الرطوبة 47%
ضغط 1023 hPa
الرؤية: 16.1 كم
سماء صافية

METAR: KFFZ 100354Z 01004KT 10SM CLR 14/03 A3021 RMK AO2 SLP218 T01440033

زمن: 21:36 (04:36 UTC)


TAF: مفقودة

أرصاد الطقس والتوقعات من أكثر من 4000 مطار (تقارير الطقس للمطار METAR والتنبؤ بالطقس بالمطارTAF).

المحطات المتاحة هي النقط الصفراء والحمراء على الخريطة.

حرك المؤشر فوق النقطة لمعرفة اسم المحطة.

ثم انقر لمعرفة أرصاد وتوقعات الطقس.

لتغيير الخارطة: اضغط على الأزرار الخضراء مع رمز الصليب الأسود للتكبير. على الزر الأخضر مع شرطة للتصغير، أو على الأسهم الخضراء للخرائط المجاورة.


METAR-TAF: